sensor_id;sensor_type;location;lat;lon;timestamp;temperature;humidity
31542;DHT22;18152;49.986;8.646;2022-07-04T00:00:14;18.30;99.90
31542;DHT22;18152;49.986;8.646;2022-07-04T00:02:41;18.20;99.90
31542;DHT22;18152;49.986;8.646;2022-07-04T00:05:09;18.20;99.90
31542;DHT22;18152;49.986;8.646;2022-07-04T00:07:43;18.10;99.90
31542;DHT22;18152;49.986;8.646;2022-07-04T00:10:15;18.10;99.90
31542;DHT22;18152;49.986;8.646;2022-07-04T00:12:41;18.10;99.90
31542;DHT22;18152;49.986;8.646;2022-07-04T00:15:08;18.10;99.90
31542;DHT22;18152;49.986;8.646;2022-07-04T00:17:35;18.10;99.90
31542;DHT22;18152;49.986;8.646;2022-07-04T00:20:00;18.10;99.90
31542;DHT22;18152;49.986;8.646;2022-07-04T00:22:26;18.10;99.90
31542;DHT22;18152;49.986;8.646;2022-07-04T00:24:52;18.20;99.90
31542;DHT22;18152;49.986;8.646;2022-07-04T00:27:17;18.20;99.90
31542;DHT22;18152;49.986;8.646;2022-07-04T00:29:43;18.10;99.90
31542;DHT22;18152;49.986;8.646;2022-07-04T00:32:09;18.10;99.90
31542;DHT22;18152;49.986;8.646;2022-07-04T00:34:35;18.10;99.90
31542;DHT22;18152;49.986;8.646;2022-07-04T00:37:00;18.10;99.90
31542;DHT22;18152;49.986;8.646;2022-07-04T00:39:29;18.20;99.90
31542;DHT22;18152;49.986;8.646;2022-07-04T00:41:55;18.00;99.90
31542;DHT22;18152;49.986;8.646;2022-07-04T00:44:20;18.00;99.90
31542;DHT22;18152;49.986;8.646;2022-07-04T00:46:47;17.90;99.90
31542;DHT22;18152;49.986;8.646;2022-07-04T00:49:14;17.80;99.90
31542;DHT22;18152;49.986;8.646;2022-07-04T00:51:41;17.80;99.90
31542;DHT22;18152;49.986;8.646;2022-07-04T00:54:13;17.70;99.90
31542;DHT22;18152;49.986;8.646;2022-07-04T00:56:42;17.70;99.90
31542;DHT22;18152;49.986;8.646;2022-07-04T00:59:08;17.60;99.90
31542;DHT22;18152;49.986;8.646;2022-07-04T01:01:35;17.60;99.90
31542;DHT22;18152;49.986;8.646;2022-07-04T01:04:05;17.40;99.90
31542;DHT22;18152;49.986;8.646;2022-07-04T01:06:31;17.40;99.90
31542;DHT22;18152;49.986;8.646;2022-07-04T01:08:58;17.40;99.90
31542;DHT22;18152;49.986;8.646;2022-07-04T01:11:24;17.40;99.90
31542;DHT22;18152;49.986;8.646;2022-07-04T01:13:49;17.30;99.90
31542;DHT22;18152;49.986;8.646;2022-07-04T01:16:15;17.20;99.90
31542;DHT22;18152;49.986;8.646;2022-07-04T01:18:41;17.10;99.90
31542;DHT22;18152;49.986;8.646;2022-07-04T01:21:07;17.10;99.90
31542;DHT22;18152;49.986;8.646;2022-07-04T01:23:38;17.00;99.90
31542;DHT22;18152;49.986;8.646;2022-07-04T01:26:04;17.00;99.90
31542;DHT22;18152;49.986;8.646;2022-07-04T01:28:30;16.90;99.90
31542;DHT22;18152;49.986;8.646;2022-07-04T01:30:55;16.80;99.90
31542;DHT22;18152;49.986;8.646;2022-07-04T01:33:21;16.70;99.90
31542;DHT22;18152;49.986;8.646;2022-07-04T01:35:47;16.60;99.90
31542;DHT22;18152;49.986;8.646;2022-07-04T01:38:13;16.50;99.90
31542;DHT22;18152;49.986;8.646;2022-07-04T01:40:38;16.50;99.90
31542;DHT22;18152;49.986;8.646;2022-07-04T01:43:04;16.40;99.90
31542;DHT22;18152;49.986;8.646;2022-07-04T01:45:30;16.40;99.90
31542;DHT22;18152;49.986;8.646;2022-07-04T01:47:58;16.30;99.90
31542;DHT22;18152;49.986;8.646;2022-07-04T01:50:24;16.20;99.90
31542;DHT22;18152;49.986;8.646;2022-07-04T01:52:50;16.20;99.90
31542;DHT22;18152;49.986;8.646;2022-07-04T01:55:15;16.20;99.90
31542;DHT22;18152;49.986;8.646;2022-07-04T01:57:41;16.10;99.90
31542;DHT22;18152;49.986;8.646;2022-07-04T02:00:09;16.00;99.90
31542;DHT22;18152;49.986;8.646;2022-07-04T02:02:55;15.90;99.90
31542;DHT22;18152;49.986;8.646;2022-07-04T02:05:21;15.90;99.90
31542;DHT22;18152;49.986;8.646;2022-07-04T02:07:48;15.90;99.90
31542;DHT22;18152;49.986;8.646;2022-07-04T02:10:14;15.90;99.90
31542;DHT22;18152;49.986;8.646;2022-07-04T02:12:39;15.90;99.90
31542;DHT22;18152;49.986;8.646;2022-07-04T02:15:24;15.80;99.90
31542;DHT22;18152;49.986;8.646;2022-07-04T02:17:50;15.70;99.90
31542;DHT22;18152;49.986;8.646;2022-07-04T02:20:15;15.60;99.90
31542;DHT22;18152;49.986;8.646;2022-07-04T02:22:41;15.50;99.90
31542;DHT22;18152;49.986;8.646;2022-07-04T02:25:07;15.50;99.90
31542;DHT22;18152;49.986;8.646;2022-07-04T02:27:33;15.50;99.90
31542;DHT22;18152;49.986;8.646;2022-07-04T02:29:58;15.50;99.90
31542;DHT22;18152;49.986;8.646;2022-07-04T02:32:24;15.30;99.90
31542;DHT22;18152;49.986;8.646;2022-07-04T02:34:50;15.30;99.90
31542;DHT22;18152;49.986;8.646;2022-07-04T02:37:15;15.20;99.90
31542;DHT22;18152;49.986;8.646;2022-07-04T02:39:41;15.20;99.90
31542;DHT22;18152;49.986;8.646;2022-07-04T02:42:07;15.20;99.90
31542;DHT22;18152;49.986;8.646;2022-07-04T02:44:32;15.10;99.90
31542;DHT22;18152;49.986;8.646;2022-07-04T02:46:58;15.10;99.90
31542;DHT22;18152;49.986;8.646;2022-07-04T02:49:23;15.10;99.90
31542;DHT22;18152;49.986;8.646;2022-07-04T02:51:49;15.10;99.90
31542;DHT22;18152;49.986;8.646;2022-07-04T02:54:15;15.00;99.90
31542;DHT22;18152;49.986;8.646;2022-07-04T02:56:41;15.00;99.90
31542;DHT22;18152;49.986;8.646;2022-07-04T02:59:07;15.00;99.90
31542;DHT22;18152;49.986;8.646;2022-07-04T03:01:32;15.00;99.90
31542;DHT22;18152;49.986;8.646;2022-07-04T03:03:58;14.90;99.90
31542;DHT22;18152;49.986;8.646;2022-07-04T03:06:24;14.80;99.90
31542;DHT22;18152;49.986;8.646;2022-07-04T03:08:49;14.70;99.90
31542;DHT22;18152;49.986;8.646;2022-07-04T03:11:15;14.70;99.90
31542;DHT22;18152;49.986;8.646;2022-07-04T03:13:41;14.60;99.90
31542;DHT22;18152;49.986;8.646;2022-07-04T03:16:07;14.60;99.90
31542;DHT22;18152;49.986;8.646;2022-07-04T03:18:32;14.70;99.90
31542;DHT22;18152;49.986;8.646;2022-07-04T03:20:58;14.60;99.90
31542;DHT22;18152;49.986;8.646;2022-07-04T03:23:24;14.60;99.90
31542;DHT22;18152;49.986;8.646;2022-07-04T03:25:49;14.60;99.90
31542;DHT22;18152;49.986;8.646;2022-07-04T03:28:15;14.60;99.90
31542;DHT22;18152;49.986;8.646;2022-07-04T03:30:41;14.60;99.90
31542;DHT22;18152;49.986;8.646;2022-07-04T03:33:07;14.60;99.90
31542;DHT22;18152;49.986;8.646;2022-07-04T03:35:33;14.60;99.90
31542;DHT22;18152;49.986;8.646;2022-07-04T03:37:58;14.50;99.90
31542;DHT22;18152;49.986;8.646;2022-07-04T03:40:24;14.40;99.90
31542;DHT22;18152;49.986;8.646;2022-07-04T03:42:49;14.40;99.90
31542;DHT22;18152;49.986;8.646;2022-07-04T03:45:15;14.30;99.90
31542;DHT22;18152;49.986;8.646;2022-07-04T03:47:41;14.20;99.90
31542;DHT22;18152;49.986;8.646;2022-07-04T03:50:07;14.20;99.90
31542;DHT22;18152;49.986;8.646;2022-07-04T03:52:33;14.20;99.90
31542;DHT22;18152;49.986;8.646;2022-07-04T03:57:35;14.20;99.90
31542;DHT22;18152;49.986;8.646;2022-07-04T04:00:02;14.20;99.90
31542;DHT22;18152;49.986;8.646;2022-07-04T04:02:28;14.20;99.90
31542;DHT22;18152;49.986;8.646;2022-07-04T04:04:53;14.10;99.90
31542;DHT22;18152;49.986;8.646;2022-07-04T04:07:38;14.10;99.90
31542;DHT22;18152;49.986;8.646;2022-07-04T04:10:03;14.10;99.90
31542;DHT22;18152;49.986;8.646;2022-07-04T04:12:29;14.20;99.90
31542;DHT22;18152;49.986;8.646;2022-07-04T04:14:55;14.10;99.90
31542;DHT22;18152;49.986;8.646;2022-07-04T04:17:20;14.10;99.90
31542;DHT22;18152;49.986;8.646;2022-07-04T04:19:46;14.20;99.90
31542;DHT22;18152;49.986;8.646;2022-07-04T04:22:11;14.20;99.90
31542;DHT22;18152;49.986;8.646;2022-07-04T04:24:37;14.20;99.90
31542;DHT22;18152;49.986;8.646;2022-07-04T04:27:03;14.30;99.90
31542;DHT22;18152;49.986;8.646;2022-07-04T04:29:29;14.30;99.90
31542;DHT22;18152;49.986;8.646;2022-07-04T04:31:54;14.30;99.90
31542;DHT22;18152;49.986;8.646;2022-07-04T04:34:20;14.40;99.90
31542;DHT22;18152;49.986;8.646;2022-07-04T04:36:45;14.50;99.90
31542;DHT22;18152;49.986;8.646;2022-07-04T04:39:11;14.50;99.90
31542;DHT22;18152;49.986;8.646;2022-07-04T04:41:36;14.50;99.90
31542;DHT22;18152;49.986;8.646;2022-07-04T04:44:02;14.50;99.90
31542;DHT22;18152;49.986;8.646;2022-07-04T04:46:28;14.60;99.90
31542;DHT22;18152;49.986;8.646;2022-07-04T04:48:54;14.70;99.90
31542;DHT22;18152;49.986;8.646;2022-07-04T04:51:19;14.80;99.90
31542;DHT22;18152;49.986;8.646;2022-07-04T04:53:45;14.80;99.90
31542;DHT22;18152;49.986;8.646;2022-07-04T04:56:10;14.80;99.90
31542;DHT22;18152;49.986;8.646;2022-07-04T04:58:36;14.80;99.90
31542;DHT22;18152;49.986;8.646;2022-07-04T05:01:01;14.80;99.90
31542;DHT22;18152;49.986;8.646;2022-07-04T05:03:28;14.90;99.90
31542;DHT22;18152;49.986;8.646;2022-07-04T05:05:54;15.00;99.90
31542;DHT22;18152;49.986;8.646;2022-07-04T05:08:20;15.00;99.90
31542;DHT22;18152;49.986;8.646;2022-07-04T05:10:45;15.10;99.90
31542;DHT22;18152;49.986;8.646;2022-07-04T05:13:11;15.20;99.90
31542;DHT22;18152;49.986;8.646;2022-07-04T05:15:37;15.30;99.90
31542;DHT22;18152;49.986;8.646;2022-07-04T05:18:03;15.30;99.90
31542;DHT22;18152;49.986;8.646;2022-07-04T05:20:28;15.40;99.90
31542;DHT22;18152;49.986;8.646;2022-07-04T05:22:54;15.50;99.90
31542;DHT22;18152;49.986;8.646;2022-07-04T05:25:20;15.60;99.90
31542;DHT22;18152;49.986;8.646;2022-07-04T05:27:45;15.70;99.90
31542;DHT22;18152;49.986;8.646;2022-07-04T05:30:11;15.80;99.90
31542;DHT22;18152;49.986;8.646;2022-07-04T05:32:40;15.90;99.90
31542;DHT22;18152;49.986;8.646;2022-07-04T05:35:06;16.00;99.90
31542;DHT22;18152;49.986;8.646;2022-07-04T05:37:32;16.10;99.90
31542;DHT22;18152;49.986;8.646;2022-07-04T05:39:58;16.20;99.90
31542;DHT22;18152;49.986;8.646;2022-07-04T05:42:23;16.30;99.90
31542;DHT22;18152;49.986;8.646;2022-07-04T05:44:49;16.40;99.90
31542;DHT22;18152;49.986;8.646;2022-07-04T05:47:14;16.50;99.90
31542;DHT22;18152;49.986;8.646;2022-07-04T05:49:40;16.50;99.90
31542;DHT22;18152;49.986;8.646;2022-07-04T05:52:06;16.60;99.90
31542;DHT22;18152;49.986;8.646;2022-07-04T05:54:32;16.70;99.90
31542;DHT22;18152;49.986;8.646;2022-07-04T05:56:57;16.90;99.90
31542;DHT22;18152;49.986;8.646;2022-07-04T05:59:23;17.00;99.90
31542;DHT22;18152;49.986;8.646;2022-07-04T06:01:48;17.00;99.90
31542;DHT22;18152;49.986;8.646;2022-07-04T06:04:14;17.20;99.90
31542;DHT22;18152;49.986;8.646;2022-07-04T06:06:39;17.30;99.90
31542;DHT22;18152;49.986;8.646;2022-07-04T06:09:05;17.50;99.90
31542;DHT22;18152;49.986;8.646;2022-07-04T06:11:31;17.80;99.90
31542;DHT22;18152;49.986;8.646;2022-07-04T06:13:56;17.80;99.90
31542;DHT22;18152;49.986;8.646;2022-07-04T06:16:22;18.00;99.90
31542;DHT22;18152;49.986;8.646;2022-07-04T06:18:47;18.20;99.90
31542;DHT22;18152;49.986;8.646;2022-07-04T06:21:13;18.20;99.90
31542;DHT22;18152;49.986;8.646;2022-07-04T06:23:39;18.20;99.90
31542;DHT22;18152;49.986;8.646;2022-07-04T06:26:04;18.30;99.90
31542;DHT22;18152;49.986;8.646;2022-07-04T06:28:30;18.40;99.90
31542;DHT22;18152;49.986;8.646;2022-07-04T06:30:56;18.40;99.90
31542;DHT22;18152;49.986;8.646;2022-07-04T06:33:22;18.50;99.90
31542;DHT22;18152;49.986;8.646;2022-07-04T06:35:47;18.60;99.90
31542;DHT22;18152;49.986;8.646;2022-07-04T06:38:22;18.90;99.90
31542;DHT22;18152;49.986;8.646;2022-07-04T06:40:51;19.30;99.90
31542;DHT22;18152;49.986;8.646;2022-07-04T06:43:18;19.50;99.90
31542;DHT22;18152;49.986;8.646;2022-07-04T06:45:44;19.50;99.90
31542;DHT22;18152;49.986;8.646;2022-07-04T06:48:09;19.70;99.90
31542;DHT22;18152;49.986;8.646;2022-07-04T06:50:35;19.70;99.90
31542;DHT22;18152;49.986;8.646;2022-07-04T06:53:02;19.80;99.90
31542;DHT22;18152;49.986;8.646;2022-07-04T06:55:38;20.00;99.90
31542;DHT22;18152;49.986;8.646;2022-07-04T06:58:05;20.10;99.90
31542;DHT22;18152;49.986;8.646;2022-07-04T07:00:31;20.20;99.90
31542;DHT22;18152;49.986;8.646;2022-07-04T07:02:58;20.30;99.90
31542;DHT22;18152;49.986;8.646;2022-07-04T07:05:25;20.40;99.90
31542;DHT22;18152;49.986;8.646;2022-07-04T07:07:51;20.20;99.90
31542;DHT22;18152;49.986;8.646;2022-07-04T07:10:16;20.40;99.90
31542;DHT22;18152;49.986;8.646;2022-07-04T07:12:42;20.50;99.90
31542;DHT22;18152;49.986;8.646;2022-07-04T07:15:08;20.70;99.90
31542;DHT22;18152;49.986;8.646;2022-07-04T07:17:34;20.90;99.90
31542;DHT22;18152;49.986;8.646;2022-07-04T07:20:00;20.90;99.90
31542;DHT22;18152;49.986;8.646;2022-07-04T07:22:25;20.90;99.90
31542;DHT22;18152;49.986;8.646;2022-07-04T07:24:51;21.00;99.90
31542;DHT22;18152;49.986;8.646;2022-07-04T07:27:17;21.20;99.90
31542;DHT22;18152;49.986;8.646;2022-07-04T07:29:43;21.30;99.90
31542;DHT22;18152;49.986;8.646;2022-07-04T07:32:09;21.40;99.90
31542;DHT22;18152;49.986;8.646;2022-07-04T07:34:35;21.50;98.40
31542;DHT22;18152;49.986;8.646;2022-07-04T07:37:01;21.70;97.90
31542;DHT22;18152;49.986;8.646;2022-07-04T07:39:27;21.80;99.90
31542;DHT22;18152;49.986;8.646;2022-07-04T07:41:53;21.90;97.10
31542;DHT22;18152;49.986;8.646;2022-07-04T07:44:18;21.80;94.70
31542;DHT22;18152;49.986;8.646;2022-07-04T07:46:44;21.60;99.90
31542;DHT22;18152;49.986;8.646;2022-07-04T07:49:09;22.20;95.40
31542;DHT22;18152;49.986;8.646;2022-07-04T07:51:35;22.10;96.00
31542;DHT22;18152;49.986;8.646;2022-07-04T07:54:01;21.80;95.10
31542;DHT22;18152;49.986;8.646;2022-07-04T07:56:27;21.60;92.50
31542;DHT22;18152;49.986;8.646;2022-07-04T07:58:53;22.00;94.30
31542;DHT22;18152;49.986;8.646;2022-07-04T08:01:19;22.20;97.20
31542;DHT22;18152;49.986;8.646;2022-07-04T08:03:46;22.40;94.90
31542;DHT22;18152;49.986;8.646;2022-07-04T08:06:30;22.20;96.10
31542;DHT22;18152;49.986;8.646;2022-07-04T08:08:56;21.70;96.30
31542;DHT22;18152;49.986;8.646;2022-07-04T08:11:21;21.30;96.20
31542;DHT22;18152;49.986;8.646;2022-07-04T08:13:47;20.90;97.20
31542;DHT22;18152;49.986;8.646;2022-07-04T08:16:13;20.70;99.50
31542;DHT22;18152;49.986;8.646;2022-07-04T08:18:39;20.60;99.90
31542;DHT22;18152;49.986;8.646;2022-07-04T08:21:05;20.30;99.90
31542;DHT22;18152;49.986;8.646;2022-07-04T08:23:32;20.20;99.90
31542;DHT22;18152;49.986;8.646;2022-07-04T08:25:58;20.00;99.90
31542;DHT22;18152;49.986;8.646;2022-07-04T08:28:24;20.40;99.90
31542;DHT22;18152;49.986;8.646;2022-07-04T08:30:50;21.00;99.90
31542;DHT22;18152;49.986;8.646;2022-07-04T08:33:15;21.20;99.90
31542;DHT22;18152;49.986;8.646;2022-07-04T08:35:41;21.10;97.60
31542;DHT22;18152;49.986;8.646;2022-07-04T08:38:06;21.10;99.90
31542;DHT22;18152;49.986;8.646;2022-07-04T08:40:32;21.50;99.90
31542;DHT22;18152;49.986;8.646;2022-07-04T08:43:02;21.50;99.60
31542;DHT22;18152;49.986;8.646;2022-07-04T08:45:30;21.40;99.90
31542;DHT22;18152;49.986;8.646;2022-07-04T08:48:08;21.80;99.90
31542;DHT22;18152;49.986;8.646;2022-07-04T08:50:39;21.80;98.70
31542;DHT22;18152;49.986;8.646;2022-07-04T08:53:13;21.70;99.40
31542;DHT22;18152;49.986;8.646;2022-07-04T08:55:42;22.00;99.90
31542;DHT22;18152;49.986;8.646;2022-07-04T08:58:27;22.10;99.00
31542;DHT22;18152;49.986;8.646;2022-07-04T09:01:00;22.40;99.80
31542;DHT22;18152;49.986;8.646;2022-07-04T09:03:26;22.50;96.20
31542;DHT22;18152;49.986;8.646;2022-07-04T09:05:53;22.70;99.90
31542;DHT22;18152;49.986;8.646;2022-07-04T09:08:20;23.20;96.10
31542;DHT22;18152;49.986;8.646;2022-07-04T09:10:50;23.60;94.70
31542;DHT22;18152;49.986;8.646;2022-07-04T09:13:17;23.80;90.20
31542;DHT22;18152;49.986;8.646;2022-07-04T09:15:46;24.00;91.40
31542;DHT22;18152;49.986;8.646;2022-07-04T09:20:49;24.30;91.00
31542;DHT22;18152;49.986;8.646;2022-07-04T09:25:49;24.10;91.60
31542;DHT22;18152;49.986;8.646;2022-07-04T09:28:30;23.90;85.90
31542;DHT22;18152;49.986;8.646;2022-07-04T09:30:56;24.30;88.20
31542;DHT22;18152;49.986;8.646;2022-07-04T09:33:22;24.20;83.20
31542;DHT22;18152;49.986;8.646;2022-07-04T09:35:48;24.10;88.80
31542;DHT22;18152;49.986;8.646;2022-07-04T09:38:22;23.60;86.10
31542;DHT22;18152;49.986;8.646;2022-07-04T09:40:52;23.90;89.60
31542;DHT22;18152;49.986;8.646;2022-07-04T09:43:37;24.00;90.80
31542;DHT22;18152;49.986;8.646;2022-07-04T09:46:02;24.10;87.40
31542;DHT22;18152;49.986;8.646;2022-07-04T09:48:48;24.00;86.70
31542;DHT22;18152;49.986;8.646;2022-07-04T09:51:14;23.90;84.90
31542;DHT22;18152;49.986;8.646;2022-07-04T09:53:40;24.30;85.10
31542;DHT22;18152;49.986;8.646;2022-07-04T09:56:05;24.30;84.00
31542;DHT22;18152;49.986;8.646;2022-07-04T09:58:31;24.80;79.60
31542;DHT22;18152;49.986;8.646;2022-07-04T10:00:59;25.00;81.00
31542;DHT22;18152;49.986;8.646;2022-07-04T10:03:26;25.20;90.50
31542;DHT22;18152;49.986;8.646;2022-07-04T10:06:07;25.40;85.90
31542;DHT22;18152;49.986;8.646;2022-07-04T10:08:34;25.50;82.70
31542;DHT22;18152;49.986;8.646;2022-07-04T10:11:01;25.10;73.00
31542;DHT22;18152;49.986;8.646;2022-07-04T10:13:27;25.20;76.30
31542;DHT22;18152;49.986;8.646;2022-07-04T10:15:53;25.30;86.70
31542;DHT22;18152;49.986;8.646;2022-07-04T10:18:20;25.20;80.90
31542;DHT22;18152;49.986;8.646;2022-07-04T10:20:47;25.50;74.90
31542;DHT22;18152;49.986;8.646;2022-07-04T10:23:15;25.40;77.60
31542;DHT22;18152;49.986;8.646;2022-07-04T10:25:41;25.10;74.80
31542;DHT22;18152;49.986;8.646;2022-07-04T10:28:07;25.10;77.60
31542;DHT22;18152;49.986;8.646;2022-07-04T10:30:36;25.30;83.20
31542;DHT22;18152;49.986;8.646;2022-07-04T10:33:08;25.70;82.30
31542;DHT22;18152;49.986;8.646;2022-07-04T10:38:34;25.70;77.30
31542;DHT22;18152;49.986;8.646;2022-07-04T10:41:07;25.30;71.80
31542;DHT22;18152;49.986;8.646;2022-07-04T10:51:15;24.70;81.10
31542;DHT22;18152;49.986;8.646;2022-07-04T10:54:04;24.50;79.00
31542;DHT22;18152;49.986;8.646;2022-07-04T10:58:55;24.50;81.50
31542;DHT22;18152;49.986;8.646;2022-07-04T11:01:24;24.70;89.70
31542;DHT22;18152;49.986;8.646;2022-07-04T11:03:52;24.50;83.70
31542;DHT22;18152;49.986;8.646;2022-07-04T11:17:05;23.20;91.70
31542;DHT22;18152;49.986;8.646;2022-07-04T11:19:31;23.80;92.20
31542;DHT22;18152;49.986;8.646;2022-07-04T11:21:58;24.40;84.60
31542;DHT22;18152;49.986;8.646;2022-07-04T11:24:24;24.70;81.40
31542;DHT22;18152;49.986;8.646;2022-07-04T11:26:50;24.90;85.00
31542;DHT22;18152;49.986;8.646;2022-07-04T11:29:17;25.30;74.60
31542;DHT22;18152;49.986;8.646;2022-07-04T11:31:48;25.20;71.10
31542;DHT22;18152;49.986;8.646;2022-07-04T11:34:14;25.30;72.70
31542;DHT22;18152;49.986;8.646;2022-07-04T11:36:42;25.50;77.10
31542;DHT22;18152;49.986;8.646;2022-07-04T11:39:10;25.60;70.40
31542;DHT22;18152;49.986;8.646;2022-07-04T11:41:38;26.00;69.70
31542;DHT22;18152;49.986;8.646;2022-07-04T11:44:27;26.30;74.10
31542;DHT22;18152;49.986;8.646;2022-07-04T11:47:17;26.10;75.80
31542;DHT22;18152;49.986;8.646;2022-07-04T11:49:55;25.40;75.00
31542;DHT22;18152;49.986;8.646;2022-07-04T11:52:25;25.80;74.10
31542;DHT22;18152;49.986;8.646;2022-07-04T11:54:52;25.90;79.90
31542;DHT22;18152;49.986;8.646;2022-07-04T11:57:32;26.20;78.60
31542;DHT22;18152;49.986;8.646;2022-07-04T12:00:24;26.20;85.00
31542;DHT22;18152;49.986;8.646;2022-07-04T12:02:48;26.70;77.80
31542;DHT22;18152;49.986;8.646;2022-07-04T12:05:16;26.90;76.10
31542;DHT22;18152;49.986;8.646;2022-07-04T12:07:43;26.70;77.70
31542;DHT22;18152;49.986;8.646;2022-07-04T12:10:12;26.50;78.60
31542;DHT22;18152;49.986;8.646;2022-07-04T12:15:42;26.60;71.80
31542;DHT22;18152;49.986;8.646;2022-07-04T12:18:17;26.60;75.00
31542;DHT22;18152;49.986;8.646;2022-07-04T12:20:43;26.20;77.60
31542;DHT22;18152;49.986;8.646;2022-07-04T12:23:09;25.90;71.40
31542;DHT22;18152;49.986;8.646;2022-07-04T12:25:39;25.90;74.70
31542;DHT22;18152;49.986;8.646;2022-07-04T12:28:10;25.80;76.00
31542;DHT22;18152;49.986;8.646;2022-07-04T12:30:38;25.70;80.00
31542;DHT22;18152;49.986;8.646;2022-07-04T12:33:05;25.80;77.00
31542;DHT22;18152;49.986;8.646;2022-07-04T12:40:30;26.00;68.50
31542;DHT22;18152;49.986;8.646;2022-07-04T12:42:57;26.00;69.80
31542;DHT22;18152;49.986;8.646;2022-07-04T12:45:23;26.40;68.70
31542;DHT22;18152;49.986;8.646;2022-07-04T12:47:49;26.40;63.30
31542;DHT22;18152;49.986;8.646;2022-07-04T12:50:14;26.40;66.70
31542;DHT22;18152;49.986;8.646;2022-07-04T12:52:41;26.40;75.30
31542;DHT22;18152;49.986;8.646;2022-07-04T12:55:08;26.50;74.50
31542;DHT22;18152;49.986;8.646;2022-07-04T12:57:37;26.60;76.40
31542;DHT22;18152;49.986;8.646;2022-07-04T13:00:03;26.60;65.80
31542;DHT22;18152;49.986;8.646;2022-07-04T13:02:29;26.70;75.80
31542;DHT22;18152;49.986;8.646;2022-07-04T13:04:55;26.60;65.70
31542;DHT22;18152;49.986;8.646;2022-07-04T13:07:22;26.40;70.30
31542;DHT22;18152;49.986;8.646;2022-07-04T13:09:47;26.50;64.60
31542;DHT22;18152;49.986;8.646;2022-07-04T13:12:13;26.60;66.50
31542;DHT22;18152;49.986;8.646;2022-07-04T13:14:53;26.40;74.30
31542;DHT22;18152;49.986;8.646;2022-07-04T13:17:19;26.20;75.70
31542;DHT22;18152;49.986;8.646;2022-07-04T13:19:46;26.20;71.40
31542;DHT22;18152;49.986;8.646;2022-07-04T13:22:11;26.50;59.30
31542;DHT22;18152;49.986;8.646;2022-07-04T13:24:37;26.50;58.40
31542;DHT22;18152;49.986;8.646;2022-07-04T13:27:03;26.50;59.90
31542;DHT22;18152;49.986;8.646;2022-07-04T13:29:29;26.40;69.60
31542;DHT22;18152;49.986;8.646;2022-07-04T13:31:54;26.40;73.20
31542;DHT22;18152;49.986;8.646;2022-07-04T13:34:20;26.20;70.50
31542;DHT22;18152;49.986;8.646;2022-07-04T13:36:46;26.10;74.40
31542;DHT22;18152;49.986;8.646;2022-07-04T13:39:12;26.10;68.50
31542;DHT22;18152;49.986;8.646;2022-07-04T13:41:38;26.70;64.90
31542;DHT22;18152;49.986;8.646;2022-07-04T13:44:04;26.50;65.90
31542;DHT22;18152;49.986;8.646;2022-07-04T13:46:31;26.40;76.10
31542;DHT22;18152;49.986;8.646;2022-07-04T13:49:01;26.10;69.50
31542;DHT22;18152;49.986;8.646;2022-07-04T13:51:26;26.00;64.20
31542;DHT22;18152;49.986;8.646;2022-07-04T13:53:52;26.40;59.20
31542;DHT22;18152;49.986;8.646;2022-07-04T13:56:18;26.30;70.00
31542;DHT22;18152;49.986;8.646;2022-07-04T13:58:44;26.20;73.90
31542;DHT22;18152;49.986;8.646;2022-07-04T14:01:11;26.00;60.80
31542;DHT22;18152;49.986;8.646;2022-07-04T14:03:36;25.80;75.90
31542;DHT22;18152;49.986;8.646;2022-07-04T14:06:02;25.60;68.20
31542;DHT22;18152;49.986;8.646;2022-07-04T14:08:28;25.70;65.40
31542;DHT22;18152;49.986;8.646;2022-07-04T14:10:53;25.70;65.70
31542;DHT22;18152;49.986;8.646;2022-07-04T14:13:19;25.60;72.80
31542;DHT22;18152;49.986;8.646;2022-07-04T14:15:44;25.50;70.40
31542;DHT22;18152;49.986;8.646;2022-07-04T14:18:10;25.50;65.30
31542;DHT22;18152;49.986;8.646;2022-07-04T14:20:40;25.80;60.60
31542;DHT22;18152;49.986;8.646;2022-07-04T14:23:06;25.90;67.50
31542;DHT22;18152;49.986;8.646;2022-07-04T14:25:32;25.80;63.00
31542;DHT22;18152;49.986;8.646;2022-07-04T14:27:57;25.90;59.70
31542;DHT22;18152;49.986;8.646;2022-07-04T14:30:23;26.00;70.30
31542;DHT22;18152;49.986;8.646;2022-07-04T14:32:48;26.10;57.70
31542;DHT22;18152;49.986;8.646;2022-07-04T14:35:16;25.80;66.20
31542;DHT22;18152;49.986;8.646;2022-07-04T14:37:41;25.80;62.60
31542;DHT22;18152;49.986;8.646;2022-07-04T14:40:08;25.80;70.60
31542;DHT22;18152;49.986;8.646;2022-07-04T14:42:33;25.50;67.80
31542;DHT22;18152;49.986;8.646;2022-07-04T14:44:59;25.40;69.80
31542;DHT22;18152;49.986;8.646;2022-07-04T14:47:25;25.20;63.10
31542;DHT22;18152;49.986;8.646;2022-07-04T14:49:50;25.50;67.60
31542;DHT22;18152;49.986;8.646;2022-07-04T14:52:16;25.10;67.00
31542;DHT22;18152;49.986;8.646;2022-07-04T14:54:42;25.10;68.20
31542;DHT22;18152;49.986;8.646;2022-07-04T14:57:07;24.80;70.10
31542;DHT22;18152;49.986;8.646;2022-07-04T14:59:33;24.50;72.00
31542;DHT22;18152;49.986;8.646;2022-07-04T15:02:03;24.50;64.10
31542;DHT22;18152;49.986;8.646;2022-07-04T15:04:29;24.40;70.70
31542;DHT22;18152;49.986;8.646;2022-07-04T15:06:54;24.40;75.30
31542;DHT22;18152;49.986;8.646;2022-07-04T15:09:20;24.10;77.10
31542;DHT22;18152;49.986;8.646;2022-07-04T15:11:47;24.00;70.60
31542;DHT22;18152;49.986;8.646;2022-07-04T15:14:13;24.00;76.40
31542;DHT22;18152;49.986;8.646;2022-07-04T15:16:39;23.90;67.80
31542;DHT22;18152;49.986;8.646;2022-07-04T15:19:05;23.90;69.90
31542;DHT22;18152;49.986;8.646;2022-07-04T15:21:30;24.00;68.20
31542;DHT22;18152;49.986;8.646;2022-07-04T15:24:15;24.00;69.10
31542;DHT22;18152;49.986;8.646;2022-07-04T15:26:49;23.70;70.80
31542;DHT22;18152;49.986;8.646;2022-07-04T15:29:15;23.90;63.90
31542;DHT22;18152;49.986;8.646;2022-07-04T15:31:42;23.70;71.20
31542;DHT22;18152;49.986;8.646;2022-07-04T15:34:08;23.70;70.00
31542;DHT22;18152;49.986;8.646;2022-07-04T15:36:33;23.80;65.60
31542;DHT22;18152;49.986;8.646;2022-07-04T15:38:59;23.40;76.50
31542;DHT22;18152;49.986;8.646;2022-07-04T15:41:30;23.40;75.20
31542;DHT22;18152;49.986;8.646;2022-07-04T15:43:55;23.30;76.70
31542;DHT22;18152;49.986;8.646;2022-07-04T15:46:21;23.30;70.00
31542;DHT22;18152;49.986;8.646;2022-07-04T15:48:47;23.20;77.70
31542;DHT22;18152;49.986;8.646;2022-07-04T15:51:13;23.40;72.90
31542;DHT22;18152;49.986;8.646;2022-07-04T15:53:38;23.60;69.80
31542;DHT22;18152;49.986;8.646;2022-07-04T15:56:04;23.60;70.40
31542;DHT22;18152;49.986;8.646;2022-07-04T15:58:29;23.30;78.10
31542;DHT22;18152;49.986;8.646;2022-07-04T16:00:55;23.20;77.70
31542;DHT22;18152;49.986;8.646;2022-07-04T16:03:21;23.10;73.60
31542;DHT22;18152;49.986;8.646;2022-07-04T16:05:46;23.40;64.50
31542;DHT22;18152;49.986;8.646;2022-07-04T16:08:12;23.20;71.70